sensor_id;sensor_type;location;lat;lon;timestamp;temperature;humidity
49184;DHT22;35021;49.214;12.270;2023-03-03T00:01:43;18.50;29.40
49184;DHT22;35021;49.214;12.270;2023-03-03T00:04:09;18.50;29.40
49184;DHT22;35021;49.214;12.270;2023-03-03T00:06:36;18.50;29.40
49184;DHT22;35021;49.214;12.270;2023-03-03T00:09:03;18.50;29.50
49184;DHT22;35021;49.214;12.270;2023-03-03T00:11:30;18.50;29.50
49184;DHT22;35021;49.214;12.270;2023-03-03T00:13:57;18.50;29.50
49184;DHT22;35021;49.214;12.270;2023-03-03T00:18:51;18.50;29.40
49184;DHT22;35021;49.214;12.270;2023-03-03T00:21:26;18.50;29.40
49184;DHT22;35021;49.214;12.270;2023-03-03T00:26:40;18.50;29.30
49184;DHT22;35021;49.214;12.270;2023-03-03T00:29:30;18.50;29.30
49184;DHT22;35021;49.214;12.270;2023-03-03T00:35:31;18.50;29.30
49184;DHT22;35021;49.214;12.270;2023-03-03T00:38:11;18.60;29.40
49184;DHT22;35021;49.214;12.270;2023-03-03T00:40:40;18.60;29.30
49184;DHT22;35021;49.214;12.270;2023-03-03T00:45:55;18.60;29.30
49184;DHT22;35021;49.214;12.270;2023-03-03T00:48:39;18.60;29.80
49184;DHT22;35021;49.214;12.270;2023-03-03T00:51:30;18.60;29.20
49184;DHT22;35021;49.214;12.270;2023-03-03T00:53:57;18.60;29.20
49184;DHT22;35021;49.214;12.270;2023-03-03T00:56:25;18.60;29.20
49184;DHT22;35021;49.214;12.270;2023-03-03T00:58:52;18.60;29.10
49184;DHT22;35021;49.214;12.270;2023-03-03T01:01:19;18.60;29.10
49184;DHT22;35021;49.214;12.270;2023-03-03T01:03:46;18.60;29.00
49184;DHT22;35021;49.214;12.270;2023-03-03T01:06:13;18.60;29.00
49184;DHT22;35021;49.214;12.270;2023-03-03T01:08:40;18.60;29.00
49184;DHT22;35021;49.214;12.270;2023-03-03T01:11:11;18.60;28.90
49184;DHT22;35021;49.214;12.270;2023-03-03T01:13:41;18.60;28.90
49184;DHT22;35021;49.214;12.270;2023-03-03T01:16:08;18.60;29.40
49184;DHT22;35021;49.214;12.270;2023-03-03T01:18:36;18.60;28.90
49184;DHT22;35021;49.214;12.270;2023-03-03T01:21:03;18.60;28.90
49184;DHT22;35021;49.214;12.270;2023-03-03T01:23:31;18.60;28.90
49184;DHT22;35021;49.214;12.270;2023-03-03T01:25:57;18.60;28.90
49184;DHT22;35021;49.214;12.270;2023-03-03T01:28:24;18.60;28.90
49184;DHT22;35021;49.214;12.270;2023-03-03T01:30:51;18.60;29.00
49184;DHT22;35021;49.214;12.270;2023-03-03T01:33:18;18.60;29.00
49184;DHT22;35021;49.214;12.270;2023-03-03T01:35:46;18.60;29.00
49184;DHT22;35021;49.214;12.270;2023-03-03T01:38:14;18.60;29.00
49184;DHT22;35021;49.214;12.270;2023-03-03T01:40:41;18.50;29.00
49184;DHT22;35021;49.214;12.270;2023-03-03T01:43:09;18.50;29.00
49184;DHT22;35021;49.214;12.270;2023-03-03T01:48:14;18.40;29.10
49184;DHT22;35021;49.214;12.270;2023-03-03T01:50:48;18.40;29.10
49184;DHT22;35021;49.214;12.270;2023-03-03T01:56:08;18.40;29.20
49184;DHT22;35021;49.214;12.270;2023-03-03T01:58:39;18.30;29.10
49184;DHT22;35021;49.214;12.270;2023-03-03T02:01:16;18.30;29.20
49184;DHT22;35021;49.214;12.270;2023-03-03T02:03:44;18.30;29.20
49184;DHT22;35021;49.214;12.270;2023-03-03T02:06:20;18.30;29.20
49184;DHT22;35021;49.214;12.270;2023-03-03T02:11:59;18.30;29.20
49184;DHT22;35021;49.214;12.270;2023-03-03T02:14:27;18.30;29.20
49184;DHT22;35021;49.214;12.270;2023-03-03T02:16:54;18.30;29.10
49184;DHT22;35021;49.214;12.270;2023-03-03T02:22:33;18.40;29.10
49184;DHT22;35021;49.214;12.270;2023-03-03T02:25:07;18.40;29.00
49184;DHT22;35021;49.214;12.270;2023-03-03T02:27:36;18.50;29.00
49184;DHT22;35021;49.214;12.270;2023-03-03T02:30:18;18.50;28.90
49184;DHT22;35021;49.214;12.270;2023-03-03T02:32:45;18.60;28.80
49184;DHT22;35021;49.214;12.270;2023-03-03T02:35:34;18.70;28.80
49184;DHT22;35021;49.214;12.270;2023-03-03T02:41:08;18.80;28.70
49184;DHT22;35021;49.214;12.270;2023-03-03T02:46:20;18.90;28.60
49184;DHT22;35021;49.214;12.270;2023-03-03T02:48:46;18.80;28.50
49184;DHT22;35021;49.214;12.270;2023-03-03T02:51:13;18.80;28.50
49184;DHT22;35021;49.214;12.270;2023-03-03T02:53:40;18.80;28.60
49184;DHT22;35021;49.214;12.270;2023-03-03T02:56:07;18.80;28.60
49184;DHT22;35021;49.214;12.270;2023-03-03T02:58:36;18.70;28.60
49184;DHT22;35021;49.214;12.270;2023-03-03T03:01:04;18.80;28.70
49184;DHT22;35021;49.214;12.270;2023-03-03T03:03:31;18.80;28.70
49184;DHT22;35021;49.214;12.270;2023-03-03T03:05:58;18.70;28.60
49184;DHT22;35021;49.214;12.270;2023-03-03T03:08:26;18.80;28.60
49184;DHT22;35021;49.214;12.270;2023-03-03T03:10:53;18.80;28.50
49184;DHT22;35021;49.214;12.270;2023-03-03T03:13:20;18.80;28.50
49184;DHT22;35021;49.214;12.270;2023-03-03T03:15:47;18.90;28.40
49184;DHT22;35021;49.214;12.270;2023-03-03T03:18:14;18.90;28.40
49184;DHT22;35021;49.214;12.270;2023-03-03T03:20:41;18.90;28.40
49184;DHT22;35021;49.214;12.270;2023-03-03T03:23:09;18.90;28.30
49184;DHT22;35021;49.214;12.270;2023-03-03T03:25:36;19.00;28.30
49184;DHT22;35021;49.214;12.270;2023-03-03T03:28:11;19.00;28.20
49184;DHT22;35021;49.214;12.270;2023-03-03T03:30:39;19.00;28.20
49184;DHT22;35021;49.214;12.270;2023-03-03T03:33:07;19.00;28.20
49184;DHT22;35021;49.214;12.270;2023-03-03T03:35:34;19.00;28.20
49184;DHT22;35021;49.214;12.270;2023-03-03T03:38:02;19.00;28.10
49184;DHT22;35021;49.214;12.270;2023-03-03T03:40:29;19.00;28.80
49184;DHT22;35021;49.214;12.270;2023-03-03T03:42:56;18.90;28.20
49184;DHT22;35021;49.214;12.270;2023-03-03T03:45:22;18.90;28.20
49184;DHT22;35021;49.214;12.270;2023-03-03T03:47:49;19.00;28.20
49184;DHT22;35021;49.214;12.270;2023-03-03T03:50:16;19.00;28.20
49184;DHT22;35021;49.214;12.270;2023-03-03T03:52:43;19.00;28.20
49184;DHT22;35021;49.214;12.270;2023-03-03T03:55:10;19.00;28.10
49184;DHT22;35021;49.214;12.270;2023-03-03T03:57:36;19.00;28.10
49184;DHT22;35021;49.214;12.270;2023-03-03T04:00:05;19.10;28.10
49184;DHT22;35021;49.214;12.270;2023-03-03T04:02:32;19.10;28.10
49184;DHT22;35021;49.214;12.270;2023-03-03T04:04:59;19.10;28.00
49184;DHT22;35021;49.214;12.270;2023-03-03T04:07:26;19.20;28.00
49184;DHT22;35021;49.214;12.270;2023-03-03T04:09:53;19.20;28.00
49184;DHT22;35021;49.214;12.270;2023-03-03T04:12:20;19.20;27.90
49184;DHT22;35021;49.214;12.270;2023-03-03T04:14:47;19.20;28.00
49184;DHT22;35021;49.214;12.270;2023-03-03T04:17:18;19.20;28.00
49184;DHT22;35021;49.214;12.270;2023-03-03T04:19:45;19.20;28.00
49184;DHT22;35021;49.214;12.270;2023-03-03T04:22:12;19.10;28.00
49184;DHT22;35021;49.214;12.270;2023-03-03T04:24:40;19.10;28.10
49184;DHT22;35021;49.214;12.270;2023-03-03T04:27:10;19.00;28.10
49184;DHT22;35021;49.214;12.270;2023-03-03T04:29:37;19.00;28.20
49184;DHT22;35021;49.214;12.270;2023-03-03T04:32:04;19.00;28.20
49184;DHT22;35021;49.214;12.270;2023-03-03T04:34:31;18.90;28.20
49184;DHT22;35021;49.214;12.270;2023-03-03T04:36:58;18.90;28.30
49184;DHT22;35021;49.214;12.270;2023-03-03T04:39:25;18.90;28.30
49184;DHT22;35021;49.214;12.270;2023-03-03T04:41:52;18.80;28.30
49184;DHT22;35021;49.214;12.270;2023-03-03T04:44:19;18.80;28.30
49184;DHT22;35021;49.214;12.270;2023-03-03T04:46:46;18.80;28.30
49184;DHT22;35021;49.214;12.270;2023-03-03T04:49:13;18.80;28.30
49184;DHT22;35021;49.214;12.270;2023-03-03T04:51:39;18.90;28.30
49184;DHT22;35021;49.214;12.270;2023-03-03T04:54:06;18.90;28.30
49184;DHT22;35021;49.214;12.270;2023-03-03T04:56:33;18.90;28.30
49184;DHT22;35021;49.214;12.270;2023-03-03T04:59:00;18.90;28.20
49184;DHT22;35021;49.214;12.270;2023-03-03T05:01:26;18.90;28.20
49184;DHT22;35021;49.214;12.270;2023-03-03T05:03:53;18.90;28.30
49184;DHT22;35021;49.214;12.270;2023-03-03T05:06:20;18.90;28.30
49184;DHT22;35021;49.214;12.270;2023-03-03T05:08:47;18.80;28.40
49184;DHT22;35021;49.214;12.270;2023-03-03T05:11:14;18.70;28.40
49184;DHT22;35021;49.214;12.270;2023-03-03T05:13:40;18.70;28.50
49184;DHT22;35021;49.214;12.270;2023-03-03T05:16:08;18.70;28.50
49184;DHT22;35021;49.214;12.270;2023-03-03T05:18:35;18.60;28.50
49184;DHT22;35021;49.214;12.270;2023-03-03T05:21:02;18.60;28.50
49184;DHT22;35021;49.214;12.270;2023-03-03T05:23:29;18.60;28.60
49184;DHT22;35021;49.214;12.270;2023-03-03T05:25:56;18.60;28.60
49184;DHT22;35021;49.214;12.270;2023-03-03T05:28:23;18.60;28.60
49184;DHT22;35021;49.214;12.270;2023-03-03T05:30:50;18.60;28.60
49184;DHT22;35021;49.214;12.270;2023-03-03T05:33:17;18.60;28.60
49184;DHT22;35021;49.214;12.270;2023-03-03T05:35:43;18.60;28.50
49184;DHT22;35021;49.214;12.270;2023-03-03T05:38:11;18.70;28.60
49184;DHT22;35021;49.214;12.270;2023-03-03T05:40:38;18.70;28.50
49184;DHT22;35021;49.214;12.270;2023-03-03T05:43:05;18.70;29.10
49184;DHT22;35021;49.214;12.270;2023-03-03T05:45:32;18.70;28.50
49184;DHT22;35021;49.214;12.270;2023-03-03T05:48:00;18.70;28.50
49184;DHT22;35021;49.214;12.270;2023-03-03T05:50:29;18.70;28.50
49184;DHT22;35021;49.214;12.270;2023-03-03T05:52:56;18.70;28.40
49184;DHT22;35021;49.214;12.270;2023-03-03T05:55:24;18.70;28.50
49184;DHT22;35021;49.214;12.270;2023-03-03T05:57:50;18.70;28.40
49184;DHT22;35021;49.214;12.270;2023-03-03T06:00:18;18.60;28.40
49184;DHT22;35021;49.214;12.270;2023-03-03T06:02:45;18.60;28.40
49184;DHT22;35021;49.214;12.270;2023-03-03T06:05:12;18.60;28.40
49184;DHT22;35021;49.214;12.270;2023-03-03T06:07:39;18.50;28.40
49184;DHT22;35021;49.214;12.270;2023-03-03T06:10:06;18.60;28.40
49184;DHT22;35021;49.214;12.270;2023-03-03T06:12:33;18.60;28.40
49184;DHT22;35021;49.214;12.270;2023-03-03T06:15:00;18.60;28.40
49184;DHT22;35021;49.214;12.270;2023-03-03T06:17:29;18.60;28.40
49184;DHT22;35021;49.214;12.270;2023-03-03T06:19:55;18.60;28.40
49184;DHT22;35021;49.214;12.270;2023-03-03T06:22:22;18.60;28.30
49184;DHT22;35021;49.214;12.270;2023-03-03T06:24:49;18.60;28.40
49184;DHT22;35021;49.214;12.270;2023-03-03T06:27:18;18.70;28.40
49184;DHT22;35021;49.214;12.270;2023-03-03T06:29:45;18.70;28.30
49184;DHT22;35021;49.214;12.270;2023-03-03T06:32:12;18.70;28.10
49184;DHT22;35021;49.214;12.270;2023-03-03T06:34:39;18.70;28.10
49184;DHT22;35021;49.214;12.270;2023-03-03T06:37:06;18.70;28.10
49184;DHT22;35021;49.214;12.270;2023-03-03T06:39:33;18.80;28.10
49184;DHT22;35021;49.214;12.270;2023-03-03T06:41:59;18.70;28.30
49184;DHT22;35021;49.214;12.270;2023-03-03T06:44:26;18.80;28.20
49184;DHT22;35021;49.214;12.270;2023-03-03T06:46:54;18.70;28.20
49184;DHT22;35021;49.214;12.270;2023-03-03T06:49:23;18.80;28.90
49184;DHT22;35021;49.214;12.270;2023-03-03T06:51:50;18.80;28.30
49184;DHT22;35021;49.214;12.270;2023-03-03T06:54:19;18.80;28.30
49184;DHT22;35021;49.214;12.270;2023-03-03T06:56:47;18.80;28.40
49184;DHT22;35021;49.214;12.270;2023-03-03T06:59:17;18.80;28.40
49184;DHT22;35021;49.214;12.270;2023-03-03T07:01:47;18.90;28.40
49184;DHT22;35021;49.214;12.270;2023-03-03T07:04:30;18.90;28.40
49184;DHT22;35021;49.214;12.270;2023-03-03T07:07:20;18.90;28.40
49184;DHT22;35021;49.214;12.270;2023-03-03T07:09:52;18.90;28.50
49184;DHT22;35021;49.214;12.270;2023-03-03T07:12:25;18.80;28.60
49184;DHT22;35021;49.214;12.270;2023-03-03T07:15:12;18.80;28.60
49184;DHT22;35021;49.214;12.270;2023-03-03T07:17:43;18.80;28.70
49184;DHT22;35021;49.214;12.270;2023-03-03T07:22:44;18.80;28.90
49184;DHT22;35021;49.214;12.270;2023-03-03T07:25:31;18.80;28.90
49184;DHT22;35021;49.214;12.270;2023-03-03T07:28:10;18.70;29.00
49184;DHT22;35021;49.214;12.270;2023-03-03T07:30:41;18.60;29.10
49184;DHT22;35021;49.214;12.270;2023-03-03T07:33:25;18.60;29.20
49184;DHT22;35021;49.214;12.270;2023-03-03T07:35:54;18.50;29.20
49184;DHT22;35021;49.214;12.270;2023-03-03T07:38:28;18.50;29.30
49184;DHT22;35021;49.214;12.270;2023-03-03T07:40:58;18.40;29.30
49184;DHT22;35021;49.214;12.270;2023-03-03T07:43:35;18.50;29.40
49184;DHT22;35021;49.214;12.270;2023-03-03T07:48:41;18.50;29.40
49184;DHT22;35021;49.214;12.270;2023-03-03T07:51:22;18.50;29.40
49184;DHT22;35021;49.214;12.270;2023-03-03T07:54:22;18.50;29.50
49184;DHT22;35021;49.214;12.270;2023-03-03T07:57:06;18.60;29.60
49184;DHT22;35021;49.214;12.270;2023-03-03T07:59:49;18.60;30.10
49184;DHT22;35021;49.214;12.270;2023-03-03T08:04:49;18.70;29.70
49184;DHT22;35021;49.214;12.270;2023-03-03T08:07:25;18.70;29.70
49184;DHT22;35021;49.214;12.270;2023-03-03T08:09:59;18.80;29.80
49184;DHT22;35021;49.214;12.270;2023-03-03T08:12:35;18.70;29.80
49184;DHT22;35021;49.214;12.270;2023-03-03T08:17:43;18.70;29.80
49184;DHT22;35021;49.214;12.270;2023-03-03T08:20:38;18.70;29.90
49184;DHT22;35021;49.214;12.270;2023-03-03T08:23:06;18.70;29.90
49184;DHT22;35021;49.214;12.270;2023-03-03T08:25:33;18.60;29.90
49184;DHT22;35021;49.214;12.270;2023-03-03T08:28:00;18.60;29.90
49184;DHT22;35021;49.214;12.270;2023-03-03T08:30:27;18.60;29.90
49184;DHT22;35021;49.214;12.270;2023-03-03T08:32:54;18.60;29.90
49184;DHT22;35021;49.214;12.270;2023-03-03T08:35:21;18.70;30.00
49184;DHT22;35021;49.214;12.270;2023-03-03T08:37:48;18.70;30.00
49184;DHT22;35021;49.214;12.270;2023-03-03T08:40:15;18.70;29.90
49184;DHT22;35021;49.214;12.270;2023-03-03T08:42:41;18.70;29.80
49184;DHT22;35021;49.214;12.270;2023-03-03T08:45:08;18.80;29.80
49184;DHT22;35021;49.214;12.270;2023-03-03T08:47:35;18.90;29.80
49184;DHT22;35021;49.214;12.270;2023-03-03T08:50:02;18.90;29.60
49184;DHT22;35021;49.214;12.270;2023-03-03T08:52:29;18.90;29.60
49184;DHT22;35021;49.214;12.270;2023-03-03T08:54:56;19.00;30.10
49184;DHT22;35021;49.214;12.270;2023-03-03T08:57:23;19.00;29.60
49184;DHT22;35021;49.214;12.270;2023-03-03T08:59:49;19.00;29.70
49184;DHT22;35021;49.214;12.270;2023-03-03T09:02:16;19.00;29.70
49184;DHT22;35021;49.214;12.270;2023-03-03T09:04:44;19.00;29.80
49184;DHT22;35021;49.214;12.270;2023-03-03T09:07:11;19.00;29.80
49184;DHT22;35021;49.214;12.270;2023-03-03T09:09:38;19.00;29.90
49184;DHT22;35021;49.214;12.270;2023-03-03T09:12:37;19.00;29.90
49184;DHT22;35021;49.214;12.270;2023-03-03T09:15:34;19.10;30.00
49184;DHT22;35021;49.214;12.270;2023-03-03T09:18:19;19.10;30.00
49184;DHT22;35021;49.214;12.270;2023-03-03T09:20:53;19.20;30.00
49184;DHT22;35021;49.214;12.270;2023-03-03T09:23:24;19.20;30.00
49184;DHT22;35021;49.214;12.270;2023-03-03T09:25:53;19.20;29.90
49184;DHT22;35021;49.214;12.270;2023-03-03T09:28:25;19.30;29.90
49184;DHT22;35021;49.214;12.270;2023-03-03T09:30:54;19.30;29.80
49184;DHT22;35021;49.214;12.270;2023-03-03T09:33:48;19.30;29.80
49184;DHT22;35021;49.214;12.270;2023-03-03T09:38:51;19.30;29.70
49184;DHT22;35021;49.214;12.270;2023-03-03T09:44:29;19.30;29.70
49184;DHT22;35021;49.214;12.270;2023-03-03T10:20:03;19.70;29.40
49184;DHT22;35021;49.214;12.270;2023-03-03T10:31:15;19.90;29.30
49184;DHT22;35021;49.214;12.270;2023-03-03T10:36:26;19.90;29.80
49184;DHT22;35021;49.214;12.270;2023-03-03T10:39:18;19.90;29.30
49184;DHT22;35021;49.214;12.270;2023-03-03T10:50:53;20.10;29.40
49184;DHT22;35021;49.214;12.270;2023-03-03T10:53:43;20.20;29.40
49184;DHT22;35021;49.214;12.270;2023-03-03T10:56:30;20.30;29.30
49184;DHT22;35021;49.214;12.270;2023-03-03T10:59:36;20.30;29.20
49184;DHT22;35021;49.214;12.270;2023-03-03T11:05:18;20.40;29.30
49184;DHT22;35021;49.214;12.270;2023-03-03T11:07:53;20.40;29.10
49184;DHT22;35021;49.214;12.270;2023-03-03T11:10:46;20.40;29.10
49184;DHT22;35021;49.214;12.270;2023-03-03T11:21:32;20.60;28.90
49184;DHT22;35021;49.214;12.270;2023-03-03T11:24:06;20.60;28.90
49184;DHT22;35021;49.214;12.270;2023-03-03T11:29:35;20.60;28.80
49184;DHT22;35021;49.214;12.270;2023-03-03T11:43:29;20.30;29.00
49184;DHT22;35021;49.214;12.270;2023-03-03T11:46:10;20.30;29.10
49184;DHT22;35021;49.214;12.270;2023-03-03T11:51:35;20.10;29.20
49184;DHT22;35021;49.214;12.270;2023-03-03T11:54:16;20.10;29.30
49184;DHT22;35021;49.214;12.270;2023-03-03T11:56:46;20.00;29.40
49184;DHT22;35021;49.214;12.270;2023-03-03T12:01:55;19.80;29.40
49184;DHT22;35021;49.214;12.270;2023-03-03T12:04:37;19.80;29.50
49184;DHT22;35021;49.214;12.270;2023-03-03T12:10:29;19.80;29.50
49184;DHT22;35021;49.214;12.270;2023-03-03T12:13:04;19.80;30.00
49184;DHT22;35021;49.214;12.270;2023-03-03T12:15:55;19.80;29.40
49184;DHT22;35021;49.214;12.270;2023-03-03T12:18:40;19.90;29.50
49184;DHT22;35021;49.214;12.270;2023-03-03T12:24:13;20.00;29.50
49184;DHT22;35021;49.214;12.270;2023-03-03T12:32:45;20.30;29.50
49184;DHT22;35021;49.214;12.270;2023-03-03T12:35:24;20.40;29.40
49184;DHT22;35021;49.214;12.270;2023-03-03T12:40:33;20.50;29.40
49184;DHT22;35021;49.214;12.270;2023-03-03T12:43:14;20.60;29.30
49184;DHT22;35021;49.214;12.270;2023-03-03T12:48:39;20.70;29.20
49184;DHT22;35021;49.214;12.270;2023-03-03T12:54:10;20.80;29.30
49184;DHT22;35021;49.214;12.270;2023-03-03T12:57:04;20.80;29.20
49184;DHT22;35021;49.214;12.270;2023-03-03T13:07:45;20.80;28.70
49184;DHT22;35021;49.214;12.270;2023-03-03T13:10:33;20.80;28.60
49184;DHT22;35021;49.214;12.270;2023-03-03T13:18:34;20.70;28.30
49184;DHT22;35021;49.214;12.270;2023-03-03T13:21:10;20.50;28.20
49184;DHT22;35021;49.214;12.270;2023-03-03T13:23:59;20.50;28.20
49184;DHT22;35021;49.214;12.270;2023-03-03T13:26:36;20.40;28.20
49184;DHT22;35021;49.214;12.270;2023-03-03T13:31:40;20.30;28.40
49184;DHT22;35021;49.214;12.270;2023-03-03T13:34:19;20.20;28.50
49184;DHT22;35021;49.214;12.270;2023-03-03T13:36:56;20.20;28.60
49184;DHT22;35021;49.214;12.270;2023-03-03T13:39:28;20.10;28.60
49184;DHT22;35021;49.214;12.270;2023-03-03T13:42:19;20.10;28.60
49184;DHT22;35021;49.214;12.270;2023-03-03T13:44:50;20.00;28.60
49184;DHT22;35021;49.214;12.270;2023-03-03T13:47:27;20.00;28.60
49184;DHT22;35021;49.214;12.270;2023-03-03T13:50:19;20.00;28.60
49184;DHT22;35021;49.214;12.270;2023-03-03T13:52:54;20.00;28.70
49184;DHT22;35021;49.214;12.270;2023-03-03T13:55:28;20.00;28.80
49184;DHT22;35021;49.214;12.270;2023-03-03T14:00:59;20.10;28.90
49184;DHT22;35021;49.214;12.270;2023-03-03T14:03:51;20.20;28.80
49184;DHT22;35021;49.214;12.270;2023-03-03T14:06:22;20.30;28.90
49184;DHT22;35021;49.214;12.270;2023-03-03T14:14:40;20.50;28.70
49184;DHT22;35021;49.214;12.270;2023-03-03T14:17:31;20.60;28.70
49184;DHT22;35021;49.214;12.270;2023-03-03T14:22:49;20.70;28.70
49184;DHT22;35021;49.214;12.270;2023-03-03T14:25:17;20.90;28.70
49184;DHT22;35021;49.214;12.270;2023-03-03T14:35:49;21.00;28.50
49184;DHT22;35021;49.214;12.270;2023-03-03T14:38:19;21.00;28.50
49184;DHT22;35021;49.214;12.270;2023-03-03T14:40:47;21.00;28.50
49184;DHT22;35021;49.214;12.270;2023-03-03T14:43:38;21.00;28.50
49184;DHT22;35021;49.214;12.270;2023-03-03T14:46:33;20.90;28.40
49184;DHT22;35021;49.214;12.270;2023-03-03T14:49:28;20.90;28.50
49184;DHT22;35021;49.214;12.270;2023-03-03T14:52:10;20.80;28.60
49184;DHT22;35021;49.214;12.270;2023-03-03T14:54:41;20.80;28.60
49184;DHT22;35021;49.214;12.270;2023-03-03T14:57:15;20.80;28.80
49184;DHT22;35021;49.214;12.270;2023-03-03T15:00:01;20.70;28.90
49184;DHT22;35021;49.214;12.270;2023-03-03T15:05:21;20.60;29.00
49184;DHT22;35021;49.214;12.270;2023-03-03T15:07:55;20.60;29.00
49184;DHT22;35021;49.214;12.270;2023-03-03T15:10:38;20.60;29.60
49184;DHT22;35021;49.214;12.270;2023-03-03T15:18:29;20.30;29.40
49184;DHT22;35021;49.214;12.270;2023-03-03T15:21:12;20.20;29.40
49184;DHT22;35021;49.214;12.270;2023-03-03T15:33:01;19.90;29.60
49184;DHT22;35021;49.214;12.270;2023-03-03T15:36:10;20.00;29.60
49184;DHT22;35021;49.214;12.270;2023-03-03T15:41:50;20.00;29.70
49184;DHT22;35021;49.214;12.270;2023-03-03T15:44:30;20.10;29.80
49184;DHT22;35021;49.214;12.270;2023-03-03T15:47:33;20.10;29.80
49184;DHT22;35021;49.214;12.270;2023-03-03T15:50:27;20.20;29.70
49184;DHT22;35021;49.214;12.270;2023-03-03T15:53:14;20.30;29.70
49184;DHT22;35021;49.214;12.270;2023-03-03T15:56:03;20.30;29.70
49184;DHT22;35021;49.214;12.270;2023-03-03T16:01:34;20.40;29.60
49184;DHT22;35021;49.214;12.270;2023-03-03T16:04:17;20.50;29.60
49184;DHT22;35021;49.214;12.270;2023-03-03T16:07:12;20.50;29.60
49184;DHT22;35021;49.214;12.270;2023-03-03T16:13:00;20.60;30.00
49184;DHT22;35021;49.214;12.270;2023-03-03T16:15:54;20.60;29.40
49184;DHT22;35021;49.214;12.270;2023-03-03T16:19:16;20.70;30.00
49184;DHT22;35021;49.214;12.270;2023-03-03T16:24:27;20.70;29.40
49184;DHT22;35021;49.214;12.270;2023-03-03T16:35:21;20.60;29.70
49184;DHT22;35021;49.214;12.270;2023-03-03T16:38:14;20.50;29.80
49184;DHT22;35021;49.214;12.270;2023-03-03T16:45:56;20.30;30.10
49184;DHT22;35021;49.214;12.270;2023-03-03T16:48:32;20.20;30.20
49184;DHT22;35021;49.214;12.270;2023-03-03T16:58:56;20.00;30.30
49184;DHT22;35021;49.214;12.270;2023-03-03T17:04:42;20.00;30.30
49184;DHT22;35021;49.214;12.270;2023-03-03T17:10:14;20.00;30.30
49184;DHT22;35021;49.214;12.270;2023-03-03T17:13:05;20.00;30.30
49184;DHT22;35021;49.214;12.270;2023-03-03T17:21:17;20.10;30.30
49184;DHT22;35021;49.214;12.270;2023-03-03T17:23:50;20.20;30.30
49184;DHT22;35021;49.214;12.270;2023-03-03T17:38:29;20.30;30.10
49184;DHT22;35021;49.214;12.270;2023-03-03T17:49:35;20.50;30.00
49184;DHT22;35021;49.214;12.270;2023-03-03T17:54:59;20.50;30.00
49184;DHT22;35021;49.214;12.270;2023-03-03T17:58:10;20.50;30.00
49184;DHT22;35021;49.214;12.270;2023-03-03T18:09:33;20.50;30.00
49184;DHT22;35021;49.214;12.270;2023-03-03T18:12:23;20.50;30.00
49184;DHT22;35021;49.214;12.270;2023-03-03T18:15:19;20.50;30.00
49184;DHT22;35021;49.214;12.270;2023-03-03T18:20:53;20.50;30.60
49184;DHT22;35021;49.214;12.270;2023-03-03T18:23:39;20.40;29.90
49184;DHT22;35021;49.214;12.270;2023-03-03T18:29:19;20.40;29.90
49184;DHT22;35021;49.214;12.270;2023-03-03T18:32:02;20.30;29.90
49184;DHT22;35021;49.214;12.270;2023-03-03T18:37:48;20.30;29.90
49184;DHT22;35021;49.214;12.270;2023-03-03T18:42:41;20.20;29.90
49184;DHT22;35021;49.214;12.270;2023-03-03T18:50:41;20.20;29.90
49184;DHT22;35021;49.214;12.270;2023-03-03T18:55:44;20.20;29.80
49184;DHT22;35021;49.214;12.270;2023-03-03T19:09:41;20.30;29.70
49184;DHT22;35021;49.214;12.270;2023-03-03T19:12:10;20.30;29.60
49184;DHT22;35021;49.214;12.270;2023-03-03T19:14:39;20.40;29.60
49184;DHT22;35021;49.214;12.270;2023-03-03T19:20:13;20.40;29.50
49184;DHT22;35021;49.214;12.270;2023-03-03T19:22:47;20.50;29.50
49184;DHT22;35021;49.214;12.270;2023-03-03T19:25:22;20.40;29.40
49184;DHT22;35021;49.214;12.270;2023-03-03T19:31:13;20.50;29.40
49184;DHT22;35021;49.214;12.270;2023-03-03T19:37:26;20.40;29.30
49184;DHT22;35021;49.214;12.270;2023-03-03T19:40:27;20.40;29.30
49184;DHT22;35021;49.214;12.270;2023-03-03T19:43:38;20.30;29.30
49184;DHT22;35021;49.214;12.270;2023-03-03T19:49:09;20.30;29.20
49184;DHT22;35021;49.214;12.270;2023-03-03T19:52:06;20.30;29.30
49184;DHT22;35021;49.214;12.270;2023-03-03T19:55:01;20.30;29.20
49184;DHT22;35021;49.214;12.270;2023-03-03T20:00:41;20.30;29.20
49184;DHT22;35021;49.214;12.270;2023-03-03T20:06:24;20.30;29.10
49184;DHT22;35021;49.214;12.270;2023-03-03T20:08:58;20.30;29.10
49184;DHT22;35021;49.214;12.270;2023-03-03T20:14:33;20.20;29.00
49184;DHT22;35021;49.214;12.270;2023-03-03T20:20:39;20.20;29.00
49184;DHT22;35021;49.214;12.270;2023-03-03T20:26:00;20.20;28.90
49184;DHT22;35021;49.214;12.270;2023-03-03T20:31:54;20.10;28.90
49184;DHT22;35021;49.214;12.270;2023-03-03T20:34:41;20.00;28.90
49184;DHT22;35021;49.214;12.270;2023-03-03T20:37:30;20.00;28.90
49184;DHT22;35021;49.214;12.270;2023-03-03T20:45:46;19.90;28.90
49184;DHT22;35021;49.214;12.270;2023-03-03T20:48:30;19.90;28.90
49184;DHT22;35021;49.214;12.270;2023-03-03T20:53:52;19.90;28.90
49184;DHT22;35021;49.214;12.270;2023-03-03T20:59:26;19.80;28.90
49184;DHT22;35021;49.214;12.270;2023-03-03T21:05:14;19.80;28.90
49184;DHT22;35021;49.214;12.270;2023-03-03T21:07:57;19.80;28.80
49184;DHT22;35021;49.214;12.270;2023-03-03T21:10:32;19.70;28.80
49184;DHT22;35021;49.214;12.270;2023-03-03T21:13:35;19.70;28.80
49184;DHT22;35021;49.214;12.270;2023-03-03T21:19:00;19.70;28.80
49184;DHT22;35021;49.214;12.270;2023-03-03T21:21:31;19.70;28.90
49184;DHT22;35021;49.214;12.270;2023-03-03T21:23:58;19.60;28.90
49184;DHT22;35021;49.214;12.270;2023-03-03T21:26:53;19.60;28.90
49184;DHT22;35021;49.214;12.270;2023-03-03T21:29:31;19.50;28.90
49184;DHT22;35021;49.214;12.270;2023-03-03T21:32:06;19.50;29.00
49184;DHT22;35021;49.214;12.270;2023-03-03T21:34:39;19.40;29.00
49184;DHT22;35021;49.214;12.270;2023-03-03T21:37:11;19.40;29.00
49184;DHT22;35021;49.214;12.270;2023-03-03T21:39:42;19.30;29.00
49184;DHT22;35021;49.214;12.270;2023-03-03T21:42:14;19.30;29.00
49184;DHT22;35021;49.214;12.270;2023-03-03T21:44:46;19.30;29.00
49184;DHT22;35021;49.214;12.270;2023-03-03T21:47:25;19.30;29.00
49184;DHT22;35021;49.214;12.270;2023-03-03T21:49:52;19.30;29.00
49184;DHT22;35021;49.214;12.270;2023-03-03T21:52:20;19.30;29.00
49184;DHT22;35021;49.214;12.270;2023-03-03T21:54:49;19.30;28.90
49184;DHT22;35021;49.214;12.270;2023-03-03T21:57:17;19.30;28.90